Terminal Aerodrome Forecast
Issued by NWS

Home | Current Version | Previous Version | Text Only | Print | Product List | Glossary On
Versions: 1 2 3 4 5 6 7 8 9 10 11 12 13 14 15 16 17 18 19
108
FTUS43 KDLH 060537
TAFHIB
TAF
KHIB 060537Z 0606/0706 22003KT P6SM SCT025 BKN070
      TEMPO 0606/0608 OVC025
     FM061500 20002KT P6SM VCSH BKN025
     FM062000 20011KT 1 1/2SM -SN OVC015
     FM070400 23008KT 5SM -SN BKN050=

USA.gov is the U.S. government's official web portal to all federal, state and local government web resources and services.